Time;durP1;ratioP1;P1;durP2;ratioP2;P2;SDS_P1;SDS_P2;PMS_P1;PMS_P2;Temp;Humidity;BMP_temperature;BMP_pressure;BME280_temperature;BME280_humidity;BME280_pressure;Samples;Min_cycle;Max_cycle;Signal;HPM_P1;HPM_P2
2023/06/10 00:00:25;;;;;;;16.05;6.25;;;;;;;13.78;70.58;100166.13;5081307;28;20052;-59
2023/06/10 00:02:52;;;;;;;13.32;6.78;;;;;;;13.79;70.69;100167.88;5085882;28;20131;-58
2023/06/10 00:05:21;;;;;;;19.67;7.22;;;;;;;13.77;70.72;100169.63;5081895;28;20105;-53
2023/06/10 00:07:48;;;;;;;16.63;6.38;;;;;;;13.78;69.85;100171.34;5079542;28;20044;-58
2023/06/10 00:10:15;;;;;;;17.00;7.00;;;;;;;13.75;70.56;100166.22;5072480;28;20044;-53
2023/06/10 00:12:42;;;;;;;19.83;8.25;;;;;;;13.76;70.13;100162.72;5082651;28;20044;-60
2023/06/10 00:15:09;;;;;;;16.05;7.50;;;;;;;13.72;70.84;100161.88;5077506;28;20047;-61
2023/06/10 00:17:38;;;;;;;15.93;6.95;;;;;;;13.72;69.86;100163.63;5077402;28;20052;-47
2023/06/10 00:20:10;;;;;;;15.82;6.57;;;;;;;13.75;70.48;100168.81;5074828;28;20052;-54
2023/06/10 00:22:39;;;;;;;15.25;5.80;;;;;;;13.68;70.89;100164.56;5079549;28;20047;-59
2023/06/10 00:25:07;;;;;;;19.77;6.95;;;;;;;13.69;70.40;100176.69;5075824;28;20043;-56
2023/06/10 00:27:36;;;;;;;21.13;6.88;;;;;;;13.66;70.53;100171.53;5074875;28;20051;-55
2023/06/10 00:30:06;;;;;;;14.98;6.75;;;;;;;13.65;70.95;100169.81;5073054;28;20048;-57
2023/06/10 00:32:36;;;;;;;20.77;7.10;;;;;;;13.65;70.81;100169.81;5076465;28;20553;-56
2023/06/10 00:35:05;;;;;;;15.05;7.57;;;;;;;13.62;70.63;100171.56;5069672;28;20047;-58
2023/06/10 00:37:35;;;;;;;15.05;6.85;;;;;;;13.64;71.22;100160.28;5080636;28;20044;-57
2023/06/10 00:40:04;;;;;;;14.13;6.75;;;;;;;13.61;69.92;100159.44;5083173;28;20043;-56
2023/06/10 00:42:33;;;;;;;18.65;6.20;;;;;;;13.60;70.71;100157.72;5080277;28;20047;-54
2023/06/10 00:45:00;;;;;;;14.40;6.43;;;;;;;13.58;70.55;100151.66;5078980;28;20098;-52
2023/06/10 00:47:30;;;;;;;13.57;6.55;;;;;;;13.59;71.22;100153.41;5081904;28;20682;-51
2023/06/10 00:49:58;;;;;;;;;;;;;;;13.41;71.26;100161.41;5074547;28;20044;-57
2023/06/10 00:52:30;;;;;;;20.27;5.95;;;;;;;13.52;70.77;100154.38;5083206;28;19920;-53
2023/06/10 00:54:59;;;;;;;19.42;6.20;;;;;;;13.55;70.02;100148.25;5078578;28;20044;-57
2023/06/10 00:57:29;;;;;;;;;;;;;;;13.36;70.92;100149.31;5070271;28;20079;-53
2023/06/10 00:59:57;;;;;;;20.45;6.30;;;;;;;13.46;70.16;100149.19;5077343;28;19920;-53
2023/06/10 01:02:23;;;;;;;11.30;5.63;;;;;;;13.44;70.13;100148.38;5074422;28;20052;-53
2023/06/10 01:04:52;;;;;;;13.77;6.55;;;;;;;13.42;71.01;100147.53;5067087;28;20558;-58
2023/06/10 01:10:05;;;;;;;16.65;5.40;;;;;;;13.29;70.63;100152.00;5047680;27;20394;-51
2023/06/10 01:15:09;;;;;;;13.82;5.18;;;;;;;13.25;70.51;100151.19;5077874;27;20413;-54
2023/06/10 01:17:57;;;;;;;12.70;5.35;;;;;;;13.16;70.57;100140.88;5041171;28;20067;-50
2023/06/10 01:20:27;;;;;;;16.08;5.50;;;;;;;13.20;69.99;100142.56;5040982;28;20073;-58
2023/06/10 01:22:54;;;;;;;16.70;5.43;;;;;;;13.16;70.90;100138.28;5041508;28;20045;-57
2023/06/10 01:25:32;;;;;;;16.80;6.13;;;;;;;13.15;71.00;100139.19;5040765;28;20397;-56
2023/06/10 01:28:30;;;;;;;24.95;6.35;;;;;;;13.07;70.36;100142.72;5042369;28;20140;-56
2023/06/10 01:31:23;;;;;;;11.73;6.15;;;;;;;13.06;70.78;100141.00;5028469;28;20045;-56
2023/06/10 01:33:52;;;;;;;13.85;5.75;;;;;;;13.10;69.96;100136.63;5021212;28;20071;-56
2023/06/10 01:36:22;;;;;;;15.65;5.13;;;;;;;13.13;70.34;100138.34;5039334;28;20049;-55
2023/06/10 01:38:51;;;;;;;12.68;4.40;;;;;;;13.10;70.88;100137.50;5040933;28;20045;-54
2023/06/10 01:41:18;;;;;;;14.57;5.55;;;;;;;13.09;69.70;100133.19;5038146;28;20049;-56
2023/06/10 01:43:45;;;;;;;21.83;6.05;;;;;;;13.11;70.61;100127.97;5052041;28;20052;-56
2023/06/10 01:46:13;;;;;;;12.85;6.15;;;;;;;13.07;70.69;100132.31;5060563;28;20049;-61
2023/06/10 01:48:41;;;;;;;13.05;5.85;;;;;;;13.07;69.77;100121.91;5060246;28;20122;-61
2023/06/10 01:51:08;;;;;;;16.33;6.38;;;;;;;13.05;70.13;100123.69;5073903;28;20071;-52
2023/06/10 01:53:35;;;;;;;14.88;5.65;;;;;;;13.04;70.60;100121.94;5060901;28;20040;-60
2023/06/10 01:56:01;;;;;;;18.52;5.45;;;;;;;13.01;70.35;100115.94;5059122;28;20087;-56
2023/06/10 01:58:28;;;;;;;12.73;5.80;;;;;;;12.98;69.88;100116.84;5059362;28;20052;-53
2023/06/10 02:00:54;;;;;;;14.70;5.03;;;;;;;12.97;69.71;100115.13;5061365;28;20056;-56
2023/06/10 02:03:21;;;;;;;16.55;7.05;;;;;;;12.93;69.90;100108.22;5062893;28;20547;-53
2023/06/10 02:05:49;;;;;;;15.18;5.93;;;;;;;12.91;69.58;100110.00;5064088;28;20679;-61
2023/06/10 02:08:15;;;;;;;20.08;5.70;;;;;;;12.89;70.39;100110.00;5052821;28;20045;-58
2023/06/10 02:10:42;;;;;;;15.55;5.80;;;;;;;12.87;70.60;100113.50;5059358;28;20082;-54
2023/06/10 02:13:09;;;;;;;15.48;6.07;;;;;;;12.84;70.75;100110.03;5054369;28;20051;-48
2023/06/10 02:15:35;;;;;;;15.82;5.28;;;;;;;12.82;70.79;100105.75;5057095;28;20424;-58
2023/06/10 02:18:02;;;;;;;15.65;5.07;;;;;;;12.79;70.13;100100.56;5065443;28;20051;-51
2023/06/10 02:20:29;;;;;;;13.30;5.78;;;;;;;12.77;70.14;100103.19;5060518;28;20041;-56
2023/06/10 02:22:56;;;;;;;16.35;5.43;;;;;;;12.74;70.83;100098.06;5057285;28;20690;-56
2023/06/10 02:25:22;;;;;;;17.77;6.13;;;;;;;12.72;70.22;100098.06;5049055;28;20049;-61
2023/06/10 02:27:49;;;;;;;11.75;5.35;;;;;;;12.70;70.24;100098.97;5045600;28;20041;-55
2023/06/10 02:30:16;;;;;;;12.27;5.13;;;;;;;12.67;70.41;100099.00;5051063;28;20562;-61
2023/06/10 02:32:48;;;;;;;17.55;6.13;;;;;;;12.66;70.25;100107.69;5045512;28;20511;-57
2023/06/10 02:35:15;;;;;;;19.67;5.50;;;;;;;12.65;70.52;100109.41;5042141;28;20041;-51
2023/06/10 02:37:42;;;;;;;16.48;5.65;;;;;;;12.62;70.52;100093.84;5046338;28;20451;-57
2023/06/10 02:40:10;;;;;;;18.35;6.18;;;;;;;12.60;70.72;100093.84;5044854;28;20136;-57
2023/06/10 02:42:37;;;;;;;14.77;5.80;;;;;;;12.57;70.85;100091.28;5041456;28;20059;-59
2023/06/10 02:45:04;;;;;;;16.17;4.80;;;;;;;12.54;70.84;100096.53;5046014;28;20626;-55
2023/06/10 02:47:30;;;;;;;16.58;5.20;;;;;;;12.52;71.36;100092.19;5042199;28;20571;-51
2023/06/10 02:49:57;;;;;;;11.70;4.78;;;;;;;12.47;70.72;100089.66;5045799;28;20049;-60
2023/06/10 02:52:24;;;;;;;20.70;6.22;;;;;;;12.45;70.57;100092.28;5037052;28;20045;-56
2023/06/10 02:54:50;;;;;;;14.65;5.53;;;;;;;12.41;71.29;100095.78;5047666;28;20079;-52
2023/06/10 02:57:17;;;;;;;15.20;5.55;;;;;;;12.41;71.52;100084.53;5042649;28;20041;-53
2023/06/10 02:59:43;;;;;;;17.25;5.53;;;;;;;12.39;72.12;100086.28;5036879;28;20048;-52
2023/06/10 03:02:11;;;;;;;12.27;5.40;;;;;;;12.38;71.69;100089.75;5045976;28;20049;-54
2023/06/10 03:04:38;;;;;;;16.98;5.95;;;;;;;12.38;71.88;100089.75;5046306;28;20045;-58
2023/06/10 03:07:07;;;;;;;13.70;5.35;;;;;;;12.36;71.00;100087.16;5038043;28;20049;-56
2023/06/10 03:09:34;;;;;;;11.52;4.22;;;;;;;12.34;71.53;100084.56;5044880;28;20113;-57
2023/06/10 03:12:00;;;;;;;16.13;5.07;;;;;;;12.36;70.57;100081.13;5046103;28;20060;-52
2023/06/10 03:14:27;;;;;;;13.05;5.10;;;;;;;12.34;70.70;100081.97;5044661;28;20533;-53
2023/06/10 03:16:54;;;;;;;13.40;5.57;;;;;;;12.33;72.21;100082.00;5044290;28;20146;-55
2023/06/10 03:19:23;;;;;;;15.02;5.05;;;;;;;12.32;70.85;100080.28;5047266;28;20049;-50
2023/06/10 03:21:58;;;;;;;17.70;5.13;;;;;;;12.29;71.14;100075.97;5043596;28;20140;-59
2023/06/10 03:24:25;;;;;;;16.90;5.53;;;;;;;12.27;71.24;100077.72;5045517;28;20045;-57
2023/06/10 03:26:51;;;;;;;15.20;5.20;;;;;;;12.27;72.42;100080.34;5045733;28;20064;-50
2023/06/10 03:29:18;;;;;;;13.43;4.28;;;;;;;12.27;71.17;100082.94;5040263;28;20587;-53
2023/06/10 03:31:45;;;;;;;17.77;5.80;;;;;;;12.27;72.36;100080.34;5041424;28;20056;-57
2023/06/10 03:34:11;;;;;;;14.50;5.63;;;;;;;12.24;71.13;100077.75;5042680;28;20076;-52
2023/06/10 03:36:41;;;;;;;15.35;5.55;;;;;;;12.24;71.82;100075.16;5041619;28;20056;-55
2023/06/10 03:39:08;;;;;;;21.42;6.28;;;;;;;12.24;70.99;100072.56;5043076;28;20123;-52
2023/06/10 03:41:34;;;;;;;13.63;5.10;;;;;;;12.24;71.82;100076.88;5043898;28;20557;-52
2023/06/10 03:44:01;;;;;;;16.92;5.60;;;;;;;12.23;71.24;100070.84;5045300;28;20055;-49
2023/06/10 03:46:28;;;;;;;14.25;5.28;;;;;;;12.23;71.67;100076.03;5045740;28;20052;-51
2023/06/10 03:48:55;;;;;;;13.23;5.20;;;;;;;12.22;72.06;100069.09;5049780;28;20042;-52
2023/06/10 03:51:22;;;;;;;14.65;5.72;;;;;;;12.22;71.06;100071.69;5042872;28;20048;-57
2023/06/10 03:53:49;;;;;;;13.18;5.63;;;;;;;12.23;70.99;100069.97;5043169;28;20504;-57
2023/06/10 03:56:16;;;;;;;17.05;6.00;;;;;;;12.22;71.35;100063.91;5043131;28;20037;-56
2023/06/10 03:58:42;;;;;;;14.13;4.63;;;;;;;12.25;71.05;100060.41;5045499;28;20056;-50
2023/06/10 04:01:14;;;;;;;17.27;6.10;;;;;;;12.24;72.13;100061.31;5038692;28;20048;-53
2023/06/10 04:03:41;;;;;;;21.00;5.75;;;;;;;12.24;72.04;100072.56;5043686;28;20049;-51
2023/06/10 04:06:08;;;;;;;16.90;6.65;;;;;;;12.24;72.14;100067.38;5040665;28;20048;-54
2023/06/10 04:08:35;;;;;;;17.67;5.68;;;;;;;12.25;71.87;100065.63;5046877;28;20052;-52
2023/06/10 04:11:02;;;;;;;13.77;6.05;;;;;;;12.25;72.47;100071.69;5043163;28;20052;-53
2023/06/10 04:13:29;;;;;;;18.13;6.65;;;;;;;12.27;71.23;100076.88;5041945;28;20500;-50
2023/06/10 04:15:55;;;;;;;17.33;5.90;;;;;;;12.27;71.26;100069.94;5042112;28;20048;-53
2023/06/10 04:18:22;;;;;;;18.50;6.88;;;;;;;12.28;72.26;100074.25;5044057;28;20069;-56
2023/06/10 04:20:49;;;;;;;15.57;6.13;;;;;;;12.30;72.30;100077.69;5042116;28;20559;-56
2023/06/10 04:23:15;;;;;;;18.25;5.82;;;;;;;12.31;72.11;100079.44;5042961;28;20052;-56
2023/06/10 04:25:42;;;;;;;17.42;7.07;;;;;;;12.32;71.56;100070.75;5045465;28;20602;-51
2023/06/10 04:28:09;;;;;;;17.38;6.15;;;;;;;12.33;71.17;100067.28;5045486;28;20671;-57
2023/06/10 04:30:35;;;;;;;19.92;6.90;;;;;;;12.36;71.84;100071.56;5044321;28;20052;-59
2023/06/10 04:33:02;;;;;;;19.88;5.75;;;;;;;12.38;71.47;100071.56;5046154;28;20049;-52
2023/06/10 04:35:29;;;;;;;17.98;5.97;;;;;;;12.42;72.02;100075.84;5045881;28;20122;-60
2023/06/10 04:37:56;;;;;;;16.95;6.45;;;;;;;12.43;72.64;100072.41;5043592;28;20068;-57
2023/06/10 04:40:22;;;;;;;18.58;6.43;;;;;;;12.44;71.80;100069.78;5043882;28;20052;-55
2023/06/10 04:42:49;;;;;;;16.05;6.32;;;;;;;12.49;72.65;100071.47;5044317;28;20045;-55
2023/06/10 04:45:16;;;;;;;21.40;6.22;;;;;;;12.50;72.20;100068.81;5054232;28;20058;-52
2023/06/10 04:47:43;;;;;;;22.25;7.10;;;;;;;12.54;72.09;100065.34;5026607;28;20136;-56
2023/06/10 04:50:10;;;;;;;17.88;5.95;;;;;;;12.59;72.89;100070.47;5023233;28;20048;-56
2023/06/10 04:52:37;;;;;;;15.05;6.50;;;;;;;12.62;72.31;100064.38;5044298;28;20132;-53
2023/06/10 04:55:04;;;;;;;24.33;6.53;;;;;;;12.64;72.97;100066.09;5041478;28;20071;-56
2023/06/10 04:57:31;;;;;;;21.27;7.20;;;;;;;12.66;73.39;100068.69;5043621;28;20393;-55
2023/06/10 04:59:57;;;;;;;17.67;6.95;;;;;;;12.71;72.46;100066.91;5043289;28;20107;-57
2023/06/10 05:02:24;;;;;;;13.48;5.95;;;;;;;12.77;72.45;100072.00;5046765;28;20055;-56
2023/06/10 05:04:51;;;;;;;17.42;7.32;;;;;;;12.81;73.44;100067.66;5043083;28;20044;-58
2023/06/10 05:07:17;;;;;;;21.40;6.82;;;;;;;12.87;72.37;100066.72;5039966;28;20102;-56
2023/06/10 05:09:45;;;;;;;22.90;7.22;;;;;;;12.92;73.05;100059.72;5044022;28;20423;-55
2023/06/10 05:12:11;;;;;;;21.92;6.80;;;;;;;12.98;73.23;100060.50;5043965;28;20140;-60
2023/06/10 05:14:38;;;;;;;22.13;7.00;;;;;;;13.02;73.03;100066.53;5043536;28;20041;-58
2023/06/10 05:17:06;;;;;;;19.75;6.50;;;;;;;13.08;72.55;100060.38;5045446;28;20097;-56
2023/06/10 05:19:32;;;;;;;20.90;7.25;;;;;;;13.14;73.01;100062.06;5044461;28;20040;-51
2023/06/10 05:21:59;;;;;;;16.98;6.82;;;;;;;13.20;72.48;100061.94;5043477;28;20052;-51
2023/06/10 05:24:26;;;;;;;18.00;6.85;;;;;;;13.26;72.84;100061.00;5040562;28;20447;-58
2023/06/10 05:26:53;;;;;;;27.92;8.43;;;;;;;13.31;73.57;100062.66;5043589;28;20123;-53
2023/06/10 05:29:19;;;;;;;16.05;6.93;;;;;;;13.35;72.34;100069.53;5047574;28;20052;-50
2023/06/10 05:31:46;;;;;;;17.83;6.40;;;;;;;13.40;73.21;100069.50;5043344;28;20045;-61
2023/06/10 05:34:13;;;;;;;20.27;7.78;;;;;;;13.46;72.43;100076.34;5043746;28;20488;-53
2023/06/10 05:36:40;;;;;;;13.43;5.20;;;;;;;13.49;72.63;100072.00;5044041;28;20114;-54
2023/06/10 05:39:06;;;;;;;20.77;6.50;;;;;;;13.55;72.24;100072.78;5042397;28;20055;-55
2023/06/10 05:41:33;;;;;;;20.70;6.47;;;;;;;13.59;72.69;100069.25;5042778;28;20045;-58
2023/06/10 05:43:59;;;;;;;20.58;7.20;;;;;;;13.66;72.67;100070.88;5044126;28;20049;-56
2023/06/10 05:46:26;;;;;;;21.92;6.70;;;;;;;13.72;71.95;100072.53;5043848;28;20049;-53
2023/06/10 05:48:53;;;;;;;22.95;7.75;;;;;;;13.75;72.23;100064.69;5041170;28;20053;-56
2023/06/10 05:51:20;;;;;;;20.30;7.28;;;;;;;13.81;72.77;100061.97;5042272;28;20684;-54
2023/06/10 05:53:46;;;;;;;20.75;7.03;;;;;;;13.91;72.10;100061.84;5043954;28;20048;-59
2023/06/10 05:56:14;;;;;;;20.13;6.85;;;;;;;14.02;72.73;100072.94;5045181;28;20412;-54
2023/06/10 05:58:41;;;;;;;18.58;7.53;;;;;;;14.13;72.22;100062.34;5038822;28;20037;-57
2023/06/10 06:01:07;;;;;;;20.30;7.65;;;;;;;14.26;72.25;100073.41;5045354;28;20049;-49
2023/06/10 06:03:34;;;;;;;17.23;6.90;;;;;;;14.37;72.71;100066.25;5047504;28;20710;-57
2023/06/10 06:06:02;;;;;;;14.88;5.20;;;;;;;14.47;72.42;100071.28;5047196;28;20048;-61
2023/06/10 06:08:29;;;;;;;17.75;6.47;;;;;;;14.59;72.30;100073.66;5045908;28;20079;-57
2023/06/10 06:10:57;;;;;;;21.02;6.88;;;;;;;14.70;71.73;100072.59;5047874;28;20052;-50
2023/06/10 06:13:23;;;;;;;17.42;6.10;;;;;;;14.81;72.23;100075.00;5047418;28;20136;-61
2023/06/10 06:15:53;;;;;;;17.88;6.82;;;;;;;14.88;71.70;100076.59;5046409;28;20530;-59
2023/06/10 06:18:19;;;;;;;12.80;5.03;;;;;;;14.95;71.87;100067.78;5047643;28;20484;-53
2023/06/10 06:20:46;;;;;;;15.55;6.35;;;;;;;15.05;71.53;100068.44;5047139;28;20484;-50
2023/06/10 06:23:13;;;;;;;15.43;7.07;;;;;;;15.18;71.70;100069.03;5045475;28;20045;-55
2023/06/10 06:25:39;;;;;;;14.38;6.50;;;;;;;15.32;71.33;100071.34;5044656;28;20056;-52
2023/06/10 06:28:09;;;;;;;12.88;5.57;;;;;;;15.51;71.22;100070.94;5046886;28;20040;-60
2023/06/10 06:30:36;;;;;;;15.32;6.10;;;;;;;15.67;71.32;100072.28;5050924;28;20045;-54
2023/06/10 06:33:03;;;;;;;18.60;8.23;;;;;;;15.90;71.07;100072.63;5042818;28;20056;-56
2023/06/10 06:35:32;;;;;;;21.92;7.13;;;;;;;16.13;71.25;100076.44;5046520;28;20491;-54
2023/06/10 06:37:58;;;;;;;16.80;6.22;;;;;;;16.30;70.21;100076.03;5048230;28;20056;-53
2023/06/10 06:40:25;;;;;;;17.63;6.22;;;;;;;16.51;70.23;100081.59;5039598;28;20056;-61
2023/06/10 06:42:52;;;;;;;14.68;6.53;;;;;;;16.67;69.60;100079.41;5042264;28;20060;-63
2023/06/10 06:45:19;;;;;;;16.48;5.05;;;;;;;16.89;69.71;100076.19;5041795;28;20048;-58
2023/06/10 06:47:45;;;;;;;22.55;6.45;;;;;;;17.03;68.97;100070.56;5045385;28;20041;-57
2023/06/10 06:50:12;;;;;;;15.52;5.20;;;;;;;17.24;69.05;100070.84;5043929;28;20088;-57
2023/06/10 06:52:39;;;;;;;14.00;5.18;;;;;;;17.40;68.10;100069.50;5044652;28;20504;-55
2023/06/10 06:55:06;;;;;;;13.57;5.20;;;;;;;17.60;68.15;100068.00;5044053;28;20492;-58
2023/06/10 06:57:33;;;;;;;15.48;5.55;;;;;;;17.75;67.65;100068.41;5043410;28;20049;-56
2023/06/10 07:00:00;;;;;;;12.23;4.80;;;;;;;17.90;66.64;100067.06;5041652;28;20057;-62
2023/06/10 07:02:27;;;;;;;12.68;4.75;;;;;;;18.11;67.03;100065.50;5044113;28;20092;-53
2023/06/10 07:04:55;;;;;;;16.35;5.30;;;;;;;18.32;67.08;100063.91;5039511;28;20056;-56
2023/06/10 07:07:22;;;;;;;17.15;6.18;;;;;;;18.52;66.17;100069.34;5033790;28;20045;-58
2023/06/10 07:09:49;;;;;;;14.27;5.40;;;;;;;18.71;65.87;100065.16;5034223;28;20102;-55
2023/06/10 07:12:16;;;;;;;16.05;4.80;;;;;;;18.89;65.04;100063.63;5038530;28;20045;-58
2023/06/10 07:14:42;;;;;;;14.23;4.90;;;;;;;19.01;64.17;100057.06;5037798;28;21253;-56
2023/06/10 07:17:09;;;;;;;13.25;4.82;;;;;;;19.12;63.91;100063.72;5043376;28;20045;-54
2023/06/10 07:19:36;;;;;;;14.82;5.68;;;;;;;19.26;63.56;100061.38;5039218;28;20115;-56
2023/06/10 07:22:03;;;;;;;18.35;4.72;;;;;;;19.35;63.19;100059.34;5039484;28;20103;-56
2023/06/10 07:24:30;;;;;;;10.93;4.82;;;;;;;19.48;63.16;100063.19;5044767;28;20057;-56
2023/06/10 07:26:57;;;;;;;16.10;5.07;;;;;;;19.70;63.49;100054.44;5036990;28;20128;-53
2023/06/10 07:29:23;;;;;;;17.63;5.32;;;;;;;19.92;62.80;100066.69;5038939;28;20049;-59
2023/06/10 07:31:50;;;;;;;15.75;6.13;;;;;;;20.12;62.63;100062.38;5042047;28;20044;-55
2023/06/10 07:34:17;;;;;;;15.05;4.80;;;;;;;20.38;62.54;100057.78;5045491;28;20052;-51
2023/06/10 07:36:43;;;;;;;14.68;5.38;;;;;;;20.53;61.05;100065.00;5040453;28;20057;-55
2023/06/10 07:39:10;;;;;;;15.52;5.07;;;;;;;20.65;60.92;100057.50;5042350;28;20075;-56
2023/06/10 07:41:37;;;;;;;14.52;4.60;;;;;;;20.77;60.82;100056.94;5039969;28;20056;-54
2023/06/10 07:44:04;;;;;;;12.15;4.47;;;;;;;20.92;60.48;100059.81;5037619;28;20057;-61
2023/06/10 07:46:30;;;;;;;19.10;5.40;;;;;;;21.09;60.20;100060.81;5039374;28;20934;-56
2023/06/10 07:48:57;;;;;;;14.38;5.15;;;;;;;21.28;59.33;100061.66;5039258;28;20446;-47
2023/06/10 07:51:24;;;;;;;14.20;4.85;;;;;;;21.37;59.03;100059.50;5043824;28;20049;-57
2023/06/10 07:53:50;;;;;;;14.32;5.25;;;;;;;21.41;58.26;100061.09;5042796;28;20060;-54
2023/06/10 07:56:17;;;;;;;11.50;4.93;;;;;;;21.57;58.40;100062.03;5042901;28;20044;-58
2023/06/10 07:58:44;;;;;;;13.90;4.95;;;;;;;21.67;57.88;100069.50;5037297;28;20120;-54
2023/06/10 08:01:10;;;;;;;13.63;4.60;;;;;;;21.88;58.96;100064.97;5041845;28;20052;-59
2023/06/10 08:03:37;;;;;;;13.23;4.22;;;;;;;22.10;57.74;100063.91;5044993;28;20054;-57
2023/06/10 08:06:05;;;;;;;15.07;5.10;;;;;;;22.29;57.11;100063.78;5039054;28;20059;-51
2023/06/10 08:08:32;;;;;;;20.70;5.63;;;;;;;22.54;57.47;100065.16;5052637;28;20048;-52
2023/06/10 08:10:58;;;;;;;12.15;4.20;;;;;;;22.78;57.08;100064.81;5060665;28;20048;-57
2023/06/10 08:13:25;;;;;;;15.82;5.68;;;;;;;22.90;55.87;100065.91;5057710;28;20102;-54
2023/06/10 08:15:53;;;;;;;15.80;5.10;;;;;;;22.93;55.26;100067.56;5051788;28;20415;-51
2023/06/10 08:18:20;;;;;;;13.80;5.85;;;;;;;22.96;54.96;100056.81;5059992;28;20044;-58
2023/06/10 08:20:46;;;;;;;14.70;4.50;;;;;;;23.08;55.16;100072.00;5056106;28;20052;-56
2023/06/10 08:23:14;;;;;;;15.18;5.90;;;;;;;23.17;55.09;100069.78;5060434;28;20049;-51
2023/06/10 08:25:41;;;;;;;13.82;4.97;;;;;;;23.15;54.23;100066.38;5059747;28;20507;-57
2023/06/10 08:28:07;;;;;;;13.77;4.68;;;;;;;23.27;55.00;100068.31;5059651;28;20059;-54
2023/06/10 08:30:34;;;;;;;14.45;4.97;;;;;;;23.42;54.84;100073.72;5061650;28;20067;-53
2023/06/10 08:33:00;;;;;;;14.35;5.65;;;;;;;23.61;54.42;100074.38;5058657;28;20049;-55
2023/06/10 08:35:27;;;;;;;15.23;4.85;;;;;;;23.72;53.82;100075.56;5033817;28;20052;-56
2023/06/10 08:37:54;;;;;;;14.55;4.57;;;;;;;23.79;53.61;100081.34;5052188;28;20048;-53
2023/06/10 08:40:21;;;;;;;19.88;6.13;;;;;;;23.88;53.61;100076.38;5057710;28;21742;-55
2023/06/10 08:45:31;;;;;;;14.02;5.75;;;;;;;24.38;54.28;100076.13;5029950;28;20404;-57
2023/06/10 08:47:59;;;;;;;15.48;5.70;;;;;;;24.62;53.24;100072.91;4994406;28;20042;-55
2023/06/10 08:50:30;;;;;;;11.90;5.15;;;;;;;24.74;52.60;100073.09;4983102;28;20065;-54
2023/06/10 08:52:59;;;;;;;18.75;5.05;;;;;;;24.78;52.11;100058.72;4997501;28;20046;-54
2023/06/10 08:55:31;;;;;;;12.32;5.13;;;;;;;24.96;52.93;100055.91;4997834;28;20057;-59
2023/06/10 08:58:01;;;;;;;14.35;6.22;;;;;;;25.19;52.06;100061.53;5000838;28;20465;-54
2023/06/10 09:00:29;;;;;;;16.60;5.95;;;;;;;25.30;51.03;100064.34;4995254;28;20061;-53
2023/06/10 09:02:57;;;;;;;10.25;5.38;;;;;;;25.49;52.09;100068.44;4997379;28;20103;-53
2023/06/10 09:05:27;;;;;;;11.75;5.35;;;;;;;25.69;50.90;100064.50;4996537;28;20050;-59
2023/06/10 09:07:57;;;;;;;13.27;5.38;;;;;;;25.84;51.20;100062.66;4993496;28;20050;-60
2023/06/10 09:10:23;;;;;;;16.20;5.65;;;;;;;25.92;50.97;100055.03;4997008;28;20050;-48
2023/06/10 09:12:50;;;;;;;16.17;5.93;;;;;;;26.06;50.54;100050.56;4995275;28;20054;-59
2023/06/10 09:15:17;;;;;;;15.20;5.63;;;;;;;26.23;50.87;100064.47;4994916;28;20053;-58
2023/06/10 09:17:44;;;;;;;12.82;5.88;;;;;;;26.38;50.16;100066.09;4996024;28;20058;-55
2023/06/10 09:20:11;;;;;;;13.88;5.30;;;;;;;26.54;50.08;100070.34;5003345;28;20057;-56
2023/06/10 09:22:38;;;;;;;13.93;5.82;;;;;;;26.64;49.06;100065.25;4976823;28;20074;-56
2023/06/10 09:25:08;;;;;;;14.15;6.25;;;;;;;26.75;49.67;100077.78;4984499;28;20054;-51
2023/06/10 09:27:54;;;;;;;11.70;5.47;;;;;;;26.89;48.70;100069.69;4989656;28;20046;-54
2023/06/10 09:30:37;;;;;;;13.25;5.78;;;;;;;26.95;48.81;100077.19;4983910;28;20173;-49
2023/06/10 09:33:09;;;;;;;;;;;;;;;26.93;49.44;100079.13;4989235;28;20046;-49
2023/06/10 09:35:44;;;;;;;15.98;5.82;;;;;;;27.12;48.36;100069.00;4989056;28;20698;-55
2023/06/10 09:38:11;;;;;;;11.90;5.72;;;;;;;27.29;49.19;100081.06;4994767;28;20050;-57
2023/06/10 09:40:54;;;;;;;14.23;5.97;;;;;;;27.38;48.13;100085.72;5002395;28;20057;-56
2023/06/10 09:43:21;;;;;;;17.10;6.00;;;;;;;27.42;48.14;100081.84;4992912;28;20048;-55
2023/06/10 09:45:49;;;;;;;18.02;7.32;;;;;;;27.48;47.98;100085.06;4993997;28;20057;-51
2023/06/10 09:48:16;;;;;;;11.45;6.13;;;;;;;27.62;46.96;100082.19;4994097;28;20425;-53
2023/06/10 09:50:44;;;;;;;13.15;5.82;;;;;;;27.76;47.39;100083.00;4994002;28;20064;-55
2023/06/10 09:53:11;;;;;;;14.63;6.43;;;;;;;27.87;47.48;100077.72;4987013;28;20046;-56
2023/06/10 09:55:39;;;;;;;11.93;5.53;;;;;;;27.97;46.85;100070.72;4985120;28;20042;-50
2023/06/10 09:58:06;;;;;;;13.48;5.65;;;;;;;28.07;47.10;100084.19;4979205;28;20065;-55
2023/06/10 10:00:34;;;;;;;16.40;8.52;;;;;;;28.18;46.50;100083.38;4974920;28;20656;-52
2023/06/10 10:03:01;;;;;;;18.42;6.75;;;;;;;28.33;46.39;100076.03;4979015;28;20050;-61
2023/06/10 10:05:29;;;;;;;13.40;6.70;;;;;;;28.43;45.09;100075.34;4981020;28;20057;-57
2023/06/10 10:07:56;;;;;;;15.65;7.53;;;;;;;28.44;45.23;100077.84;4987864;28;20133;-58
2023/06/10 10:10:23;;;;;;;12.65;6.70;;;;;;;28.44;45.93;100083.19;4976738;28;20042;-58
2023/06/10 10:12:56;;;;;;;11.40;6.10;;;;;;;28.60;46.71;100082.84;4982068;28;20042;-52
2023/06/10 10:15:28;;;;;;;13.57;6.55;;;;;;;28.68;45.33;100076.91;4981535;28;20054;-53
2023/06/10 10:18:06;;;;;;;15.52;6.47;;;;;;;28.76;46.04;100070.09;4968027;28;20042;-51
2023/06/10 10:20:34;;;;;;;13.60;6.78;;;;;;;28.91;44.68;100074.25;4983313;28;20522;-49
2023/06/10 10:23:04;;;;;;;12.70;6.47;;;;;;;28.97;44.45;100078.22;4977377;28;20060;-55
2023/06/10 10:25:37;;;;;;;14.85;7.03;;;;;;;29.02;45.21;100069.88;4982365;28;20041;-54
2023/06/10 10:30:49;;;;;;;15.80;5.72;;;;;;;29.19;44.84;100074.69;5053177;27;21141;-58
2023/06/10 10:33:20;;;;;;;11.15;5.43;;;;;;;29.37;44.48;100068.81;5017373;28;20045;-50
2023/06/10 10:35:47;;;;;;;15.77;5.95;;;;;;;29.45;44.72;100076.19;5016692;28;20050;-56
2023/06/10 10:38:14;;;;;;;12.00;6.82;;;;;;;29.55;44.23;100065.66;5016105;28;20057;-52
2023/06/10 10:40:43;;;;;;;12.40;6.07;;;;;;;29.63;43.88;100068.50;5017091;28;20056;-51
2023/06/10 10:43:11;;;;;;;12.57;6.30;;;;;;;29.69;44.13;100057.34;5019408;28;20049;-52
2023/06/10 10:45:38;;;;;;;16.45;7.70;;;;;;;29.74;43.36;100063.13;5017946;28;20459;-55
2023/06/10 10:48:11;;;;;;;12.85;6.40;;;;;;;29.84;43.98;100065.88;5016016;28;20060;-51
2023/06/10 10:50:38;;;;;;;12.38;6.68;;;;;;;29.96;43.86;100068.47;5034874;28;20113;-56
2023/06/10 10:53:05;;;;;;;12.88;6.72;;;;;;;30.10;44.39;100059.28;5018606;28;20046;-51
2023/06/10 10:55:33;;;;;;;13.20;6.57;;;;;;;30.26;44.23;100061.53;5015393;28;20727;-50
2023/06/10 10:58:08;;;;;;;15.98;6.28;;;;;;;30.34;43.06;100060.84;5018018;28;20048;-54
2023/06/10 11:00:37;;;;;;;14.95;7.15;;;;;;;30.39;43.65;100058.59;5012533;28;20054;-59
2023/06/10 11:05:44;;;;;;;12.15;7.70;;;;;;;30.53;43.86;100055.59;5033596;28;20409;-53
2023/06/10 11:08:11;;;;;;;14.05;8.27;;;;;;;30.52;43.31;100053.91;4999025;28;20058;-52
2023/06/10 11:10:43;;;;;;;13.63;8.70;;;;;;;30.61;43.87;100046.91;4996513;28;20050;-56
2023/06/10 11:13:13;;;;;;;14.35;8.95;;;;;;;30.64;42.80;100051.13;4993640;28;20050;-58
2023/06/10 11:15:46;;;;;;;16.38;8.80;;;;;;;30.63;42.83;100049.44;4999030;28;20057;-55
2023/06/10 11:21:02;;;;;;;14.00;6.40;;;;;;;30.72;42.42;100051.28;5046518;27;20395;-54
2023/06/10 11:29:05;;;;;;;14.70;8.68;;;;;;;30.72;41.84;100043.28;5001312;28;20424;-53
2023/06/10 11:31:39;;;;;;;14.30;8.30;;;;;;;30.73;42.14;100039.63;4972102;28;20129;-56
2023/06/10 11:34:07;;;;;;;10.23;7.97;;;;;;;30.82;42.63;100031.78;4969987;28;20055;-58
2023/06/10 11:36:40;;;;;;;13.65;9.93;;;;;;;30.88;41.83;100031.25;4969656;28;20047;-55
2023/06/10 11:39:07;;;;;;;15.85;8.60;;;;;;;30.91;42.06;100030.97;4972613;28;20116;-54
2023/06/10 11:41:35;;;;;;;12.23;8.00;;;;;;;30.83;42.19;100036.16;4971015;28;20054;-56